Terminal Aerodrome Forecast
Issued by NWS St Louis, MO

Home | Current Version | Previous Version | Text Only | Print | Product List | Glossary On
Versions: 1 2 3 4 5 6 7 8 9 10 11 12 13 14 15 16 17 18 19 20 21 22 23 24
078
FTUS43 KLSX 190902 AAA
TAFSTL
TAF AMD
KSTL 190902Z 1909/2012 30011G18KT P6SM FEW030
     FM191200 31009KT P6SM SKC
     FM192300 VRB04KT P6SM SKC
     FM200600 20004KT P6SM SKC=

USA.gov is the U.S. government's official web portal to all federal, state and local government web resources and services.